La Isla, Colorado
Current Conditions -  °F | °C
As of 12:52 PM on Friday 19 Dec 2014 (Local Time) from KALS Reporting Station
Clear Clear  
Wind Chill: 29°   Ceiling: Unl
Heat Index: 33°   Visibility: 10mi
Dew Point: 14°   Wind: 5mph
Humidity: 46%   Direction: NA
Pressure: 30.13"   Gusts: NA
Location:  37.1816°N, 106.262°W
Report Text: KALS 191952Z AUTO VRB04KT 10SM CLR 01/M10 A3013 RMK AO2 SLP240 T00061100 $
Loading
Personal Weather Stations






























Interactive Weather Map New forecast layout! Learn more

10-Day Weather Forecast

Advertisements
Track Severe Weather on mobile